Airfield :
LOGIN :

Register | Disclaimer

   EN    FR    IT 

 










Legend :    VFR   Marginal VFR   IFR   Intensive IFR   Very Intensive IFR
Visi :
Ceiling :
>= 8 km
>= 3000ft
5 to 8 km
1000 to 3000 ft
1500m to 5 km
500 to 1000 ft
800 to 1500m
200 to 500 ft
< 800m
< 200 ft
Symbols :   Thunderstorms  Fog  Heavy snow  Heavy precipitations  Wind > 20 kt
SIGMETs :     Misc.  Thunderstorms  Icing  Turbulence  Mountain Waves  Volcanic Ashes






- Airport Elevation : 1460 ft


LSMA - Alpnach

CURRENT METAR :
  • 061950Z AUTO 03013G24KT 340V060 9999NDV FEW033 SCT041 OVC047 01/M04 Q1032 RMK

EXPIRED METARs :
  • 061920Z AUTO 02011KT 340V070 9999NDV BKN033 BKN042 OVC054 02/M04 Q1032 RMK
  • 061850Z AUTO 05015KT 020V090 9999NDV FEW036 SCT041 OVC051 02/M03 Q1032 RMK
  • 061820Z AUTO 04009KT 340V080 9999NDV SCT026 OVC041 02/M03 Q1033 RMK
  • 061750Z AUTO 05011KT 010V080 9999NDV FEW029 BKN042 BKN053 03/M03 Q1033 RMK
  • 061720Z AUTO 03012G23KT 330V070 9999NDV FEW025 SCT030 BKN053 03/M02 Q1033 RMK

Expired Forecast.



MET'MAP, your aeronautical weather chart ! - Copyright ORBIFLY December 2007 - Disclaimer

ORBIFLY MET'MAP TEAM :

Programming & Development : Alexandra Zaïnal
Original concept : Baudouin d'Aumeries
Technical & hardware support : Manuel Goepfert
Assistance : Marc-Olivier Méhu




SOURCES & CREDITS :

   NOAA